sensor_id;sensor_type;location;lat;lon;timestamp;P1;durP1;ratioP1;P2;durP2;ratioP2
59960;SDS011;55902;-37.980;-63.602;2023-05-21T00:01:53;4.63;;;2.70;;
59960;SDS011;55902;-37.980;-63.602;2023-05-21T00:04:21;3.63;;;2.65;;
59960;SDS011;55902;-37.980;-63.602;2023-05-21T00:06:49;2.83;;;2.20;;
59960;SDS011;55902;-37.980;-63.602;2023-05-21T00:09:16;3.20;;;2.60;;
59960;SDS011;55902;-37.980;-63.602;2023-05-21T00:11:43;4.20;;;2.22;;
59960;SDS011;55902;-37.980;-63.602;2023-05-21T00:14:10;2.35;;;2.15;;
59960;SDS011;55902;-37.980;-63.602;2023-05-21T00:16:37;4.00;;;2.53;;
59960;SDS011;55902;-37.980;-63.602;2023-05-21T00:19:04;2.85;;;2.22;;
59960;SDS011;55902;-37.980;-63.602;2023-05-21T00:21:32;3.65;;;2.50;;
59960;SDS011;55902;-37.980;-63.602;2023-05-21T00:23:59;3.28;;;2.40;;
59960;SDS011;55902;-37.980;-63.602;2023-05-21T00:26:26;4.45;;;2.15;;
59960;SDS011;55902;-37.980;-63.602;2023-05-21T00:28:53;2.47;;;2.28;;
59960;SDS011;55902;-37.980;-63.602;2023-05-21T00:31:20;3.15;;;2.22;;
59960;SDS011;55902;-37.980;-63.602;2023-05-21T00:33:48;3.65;;;2.28;;
59960;SDS011;55902;-37.980;-63.602;2023-05-21T00:36:15;2.75;;;2.28;;
59960;SDS011;55902;-37.980;-63.602;2023-05-21T00:38:42;4.28;;;2.40;;
59960;SDS011;55902;-37.980;-63.602;2023-05-21T00:41:10;2.50;;;2.30;;
59960;SDS011;55902;-37.980;-63.602;2023-05-21T00:43:37;3.63;;;2.33;;
59960;SDS011;55902;-37.980;-63.602;2023-05-21T00:46:06;3.30;;;2.50;;
59960;SDS011;55902;-37.980;-63.602;2023-05-21T00:48:44;2.97;;;2.17;;
59960;SDS011;55902;-37.980;-63.602;2023-05-21T00:51:15;2.83;;;2.40;;
59960;SDS011;55902;-37.980;-63.602;2023-05-21T00:53:43;2.30;;;2.10;;
59960;SDS011;55902;-37.980;-63.602;2023-05-21T00:56:11;3.03;;;2.10;;
59960;SDS011;55902;-37.980;-63.602;2023-05-21T00:58:38;2.75;;;2.08;;
59960;SDS011;55902;-37.980;-63.602;2023-05-21T01:01:06;4.45;;;2.20;;
59960;SDS011;55902;-37.980;-63.602;2023-05-21T01:03:38;2.10;;;1.95;;
59960;SDS011;55902;-37.980;-63.602;2023-05-21T01:06:06;2.33;;;2.00;;
59960;SDS011;55902;-37.980;-63.602;2023-05-21T01:08:34;3.30;;;2.10;;
59960;SDS011;55902;-37.980;-63.602;2023-05-21T01:11:02;2.35;;;2.15;;
59960;SDS011;55902;-37.980;-63.602;2023-05-21T01:13:31;2.40;;;2.20;;
59960;SDS011;55902;-37.980;-63.602;2023-05-21T01:16:01;3.83;;;2.30;;
59960;SDS011;55902;-37.980;-63.602;2023-05-21T01:18:31;3.15;;;2.00;;
59960;SDS011;55902;-37.980;-63.602;2023-05-21T01:21:04;2.15;;;2.00;;
59960;SDS011;55902;-37.980;-63.602;2023-05-21T01:23:34;2.20;;;2.00;;
59960;SDS011;55902;-37.980;-63.602;2023-05-21T01:26:01;2.20;;;2.10;;
59960;SDS011;55902;-37.980;-63.602;2023-05-21T01:28:28;2.28;;;1.90;;
59960;SDS011;55902;-37.980;-63.602;2023-05-21T01:30:57;2.65;;;2.10;;
59960;SDS011;55902;-37.980;-63.602;2023-05-21T01:33:35;3.55;;;2.10;;
59960;SDS011;55902;-37.980;-63.602;2023-05-21T01:36:12;3.13;;;1.90;;
59960;SDS011;55902;-37.980;-63.602;2023-05-21T01:38:59;2.33;;;2.10;;
59960;SDS011;55902;-37.980;-63.602;2023-05-21T01:41:36;3.08;;;2.13;;
59960;SDS011;55902;-37.980;-63.602;2023-05-21T01:44:07;3.25;;;2.10;;
59960;SDS011;55902;-37.980;-63.602;2023-05-21T01:46:35;5.28;;;2.13;;
59960;SDS011;55902;-37.980;-63.602;2023-05-21T01:49:04;3.15;;;1.90;;
59960;SDS011;55902;-37.980;-63.602;2023-05-21T01:51:32;2.42;;;2.00;;
59960;SDS011;55902;-37.980;-63.602;2023-05-21T01:54:00;2.42;;;1.90;;
59960;SDS011;55902;-37.980;-63.602;2023-05-21T01:56:28;2.13;;;2.00;;
59960;SDS011;55902;-37.980;-63.602;2023-05-21T01:58:58;2.10;;;2.00;;
59960;SDS011;55902;-37.980;-63.602;2023-05-21T02:01:25;3.22;;;1.90;;
59960;SDS011;55902;-37.980;-63.602;2023-05-21T02:03:54;2.38;;;2.00;;
59960;SDS011;55902;-37.980;-63.602;2023-05-21T02:06:22;2.53;;;1.80;;
59960;SDS011;55902;-37.980;-63.602;2023-05-21T02:08:49;4.05;;;2.10;;
59960;SDS011;55902;-37.980;-63.602;2023-05-21T02:11:16;3.75;;;2.10;;
59960;SDS011;55902;-37.980;-63.602;2023-05-21T02:13:43;2.35;;;2.00;;
59960;SDS011;55902;-37.980;-63.602;2023-05-21T02:16:10;2.53;;;2.00;;
59960;SDS011;55902;-37.980;-63.602;2023-05-21T02:18:42;2.75;;;2.50;;
59960;SDS011;55902;-37.980;-63.602;2023-05-21T02:21:10;3.05;;;2.00;;
59960;SDS011;55902;-37.980;-63.602;2023-05-21T02:23:37;2.83;;;2.63;;
59960;SDS011;55902;-37.980;-63.602;2023-05-21T02:26:06;2.00;;;1.90;;
59960;SDS011;55902;-37.980;-63.602;2023-05-21T02:28:33;3.15;;;2.00;;
59960;SDS011;55902;-37.980;-63.602;2023-05-21T02:31:00;6.45;;;2.10;;
59960;SDS011;55902;-37.980;-63.602;2023-05-21T02:33:27;2.88;;;2.05;;
59960;SDS011;55902;-37.980;-63.602;2023-05-21T02:35:54;4.30;;;2.22;;
59960;SDS011;55902;-37.980;-63.602;2023-05-21T02:38:21;3.15;;;2.33;;
59960;SDS011;55902;-37.980;-63.602;2023-05-21T02:40:50;3.25;;;2.00;;
59960;SDS011;55902;-37.980;-63.602;2023-05-21T02:43:17;2.50;;;2.30;;
59960;SDS011;55902;-37.980;-63.602;2023-05-21T02:45:44;3.10;;;2.00;;
59960;SDS011;55902;-37.980;-63.602;2023-05-21T02:48:12;2.30;;;2.10;;
59960;SDS011;55902;-37.980;-63.602;2023-05-21T02:50:39;3.50;;;2.60;;
59960;SDS011;55902;-37.980;-63.602;2023-05-21T02:53:06;4.10;;;2.60;;
59960;SDS011;55902;-37.980;-63.602;2023-05-21T02:55:33;6.65;;;2.50;;
59960;SDS011;55902;-37.980;-63.602;2023-05-21T02:58:00;2.97;;;2.30;;
59960;SDS011;55902;-37.980;-63.602;2023-05-21T03:00:27;3.25;;;2.22;;
59960;SDS011;55902;-37.980;-63.602;2023-05-21T03:02:54;4.18;;;2.20;;
59960;SDS011;55902;-37.980;-63.602;2023-05-21T03:05:21;2.63;;;2.00;;
59960;SDS011;55902;-37.980;-63.602;2023-05-21T03:07:48;4.25;;;2.10;;
59960;SDS011;55902;-37.980;-63.602;2023-05-21T03:10:15;2.70;;;2.13;;
59960;SDS011;55902;-37.980;-63.602;2023-05-21T03:12:42;2.30;;;2.10;;
59960;SDS011;55902;-37.980;-63.602;2023-05-21T03:15:10;2.90;;;2.20;;
59960;SDS011;55902;-37.980;-63.602;2023-05-21T03:17:40;2.50;;;2.00;;
59960;SDS011;55902;-37.980;-63.602;2023-05-21T03:20:08;5.93;;;1.92;;
59960;SDS011;55902;-37.980;-63.602;2023-05-21T03:22:42;2.55;;;2.22;;
59960;SDS011;55902;-37.980;-63.602;2023-05-21T03:25:10;2.83;;;1.90;;
59960;SDS011;55902;-37.980;-63.602;2023-05-21T03:27:37;4.68;;;2.00;;
59960;SDS011;55902;-37.980;-63.602;2023-05-21T03:30:05;4.20;;;2.20;;
59960;SDS011;55902;-37.980;-63.602;2023-05-21T03:32:32;3.63;;;1.90;;
59960;SDS011;55902;-37.980;-63.602;2023-05-21T03:35:02;4.20;;;2.20;;
59960;SDS011;55902;-37.980;-63.602;2023-05-21T03:37:29;5.03;;;2.00;;
59960;SDS011;55902;-37.980;-63.602;2023-05-21T03:39:56;4.22;;;2.47;;
59960;SDS011;55902;-37.980;-63.602;2023-05-21T03:42:23;2.10;;;1.90;;
59960;SDS011;55902;-37.980;-63.602;2023-05-21T03:44:50;2.20;;;2.00;;
59960;SDS011;55902;-37.980;-63.602;2023-05-21T03:47:17;5.65;;;2.10;;
59960;SDS011;55902;-37.980;-63.602;2023-05-21T03:49:44;3.03;;;2.00;;
59960;SDS011;55902;-37.980;-63.602;2023-05-21T03:52:11;2.13;;;1.90;;
59960;SDS011;55902;-37.980;-63.602;2023-05-21T03:54:38;3.67;;;2.10;;
59960;SDS011;55902;-37.980;-63.602;2023-05-21T03:57:05;2.00;;;1.80;;
59960;SDS011;55902;-37.980;-63.602;2023-05-21T03:59:32;3.60;;;2.00;;
59960;SDS011;55902;-37.980;-63.602;2023-05-21T04:01:59;2.30;;;2.10;;
59960;SDS011;55902;-37.980;-63.602;2023-05-21T04:04:26;1.95;;;1.80;;
59960;SDS011;55902;-37.980;-63.602;2023-05-21T04:06:53;3.60;;;2.00;;
59960;SDS011;55902;-37.980;-63.602;2023-05-21T04:09:21;3.17;;;1.90;;
59960;SDS011;55902;-37.980;-63.602;2023-05-21T04:11:47;4.47;;;2.03;;
59960;SDS011;55902;-37.980;-63.602;2023-05-21T04:14:15;3.22;;;1.92;;
59960;SDS011;55902;-37.980;-63.602;2023-05-21T04:16:42;3.20;;;1.80;;
59960;SDS011;55902;-37.980;-63.602;2023-05-21T04:19:08;2.67;;;1.80;;
59960;SDS011;55902;-37.980;-63.602;2023-05-21T04:21:35;3.05;;;1.90;;
59960;SDS011;55902;-37.980;-63.602;2023-05-21T04:24:02;2.10;;;1.70;;
59960;SDS011;55902;-37.980;-63.602;2023-05-21T04:26:29;4.10;;;1.90;;
59960;SDS011;55902;-37.980;-63.602;2023-05-21T04:28:59;3.35;;;1.95;;
59960;SDS011;55902;-37.980;-63.602;2023-05-21T04:31:30;5.10;;;1.83;;
59960;SDS011;55902;-37.980;-63.602;2023-05-21T04:33:57;2.00;;;1.88;;
59960;SDS011;55902;-37.980;-63.602;2023-05-21T04:36:24;4.93;;;1.90;;
59960;SDS011;55902;-37.980;-63.602;2023-05-21T04:38:53;2.45;;;1.90;;
59960;SDS011;55902;-37.980;-63.602;2023-05-21T04:41:20;3.10;;;1.90;;
59960;SDS011;55902;-37.980;-63.602;2023-05-21T04:43:47;3.17;;;1.90;;
59960;SDS011;55902;-37.980;-63.602;2023-05-21T04:46:22;3.42;;;1.95;;
59960;SDS011;55902;-37.980;-63.602;2023-05-21T04:48:51;2.10;;;1.90;;
59960;SDS011;55902;-37.980;-63.602;2023-05-21T04:51:22;2.35;;;2.00;;
59960;SDS011;55902;-37.980;-63.602;2023-05-21T04:53:51;2.20;;;2.00;;
59960;SDS011;55902;-37.980;-63.602;2023-05-21T04:56:18;3.78;;;1.92;;
59960;SDS011;55902;-37.980;-63.602;2023-05-21T04:58:46;2.70;;;2.33;;
59960;SDS011;55902;-37.980;-63.602;2023-05-21T05:01:14;4.82;;;1.90;;
59960;SDS011;55902;-37.980;-63.602;2023-05-21T05:03:41;2.53;;;2.00;;
59960;SDS011;55902;-37.980;-63.602;2023-05-21T05:06:08;2.15;;;1.95;;
59960;SDS011;55902;-37.980;-63.602;2023-05-21T05:08:35;2.10;;;1.90;;
59960;SDS011;55902;-37.980;-63.602;2023-05-21T05:11:02;3.38;;;2.00;;
59960;SDS011;55902;-37.980;-63.602;2023-05-21T05:13:29;4.80;;;1.90;;
59960;SDS011;55902;-37.980;-63.602;2023-05-21T05:15:56;2.10;;;1.90;;
59960;SDS011;55902;-37.980;-63.602;2023-05-21T05:18:24;3.67;;;1.80;;
59960;SDS011;55902;-37.980;-63.602;2023-05-21T05:20:51;3.10;;;1.90;;
59960;SDS011;55902;-37.980;-63.602;2023-05-21T05:23:18;5.72;;;1.83;;
59960;SDS011;55902;-37.980;-63.602;2023-05-21T05:25:45;2.10;;;1.90;;
59960;SDS011;55902;-37.980;-63.602;2023-05-21T05:28:12;4.13;;;2.10;;
59960;SDS011;55902;-37.980;-63.602;2023-05-21T05:30:39;2.67;;;2.00;;
59960;SDS011;55902;-37.980;-63.602;2023-05-21T05:33:06;3.17;;;1.98;;
59960;SDS011;55902;-37.980;-63.602;2023-05-21T05:35:33;2.85;;;2.00;;
59960;SDS011;55902;-37.980;-63.602;2023-05-21T05:38:00;2.35;;;2.00;;
59960;SDS011;55902;-37.980;-63.602;2023-05-21T05:40:27;3.53;;;2.20;;
59960;SDS011;55902;-37.980;-63.602;2023-05-21T05:42:54;2.30;;;2.10;;
59960;SDS011;55902;-37.980;-63.602;2023-05-21T05:45:21;3.58;;;2.03;;
59960;SDS011;55902;-37.980;-63.602;2023-05-21T05:47:49;1.95;;;1.80;;
59960;SDS011;55902;-37.980;-63.602;2023-05-21T05:50:16;2.40;;;1.88;;
59960;SDS011;55902;-37.980;-63.602;2023-05-21T05:52:43;3.47;;;2.10;;
59960;SDS011;55902;-37.980;-63.602;2023-05-21T05:55:10;2.13;;;1.92;;
59960;SDS011;55902;-37.980;-63.602;2023-05-21T05:57:37;2.10;;;1.90;;
59960;SDS011;55902;-37.980;-63.602;2023-05-21T06:00:05;2.28;;;2.08;;
59960;SDS011;55902;-37.980;-63.602;2023-05-21T06:02:35;2.42;;;1.90;;
59960;SDS011;55902;-37.980;-63.602;2023-05-21T06:05:02;3.78;;;2.00;;
59960;SDS011;55902;-37.980;-63.602;2023-05-21T06:07:31;3.50;;;2.00;;
59960;SDS011;55902;-37.980;-63.602;2023-05-21T06:09:58;2.55;;;2.00;;
59960;SDS011;55902;-37.980;-63.602;2023-05-21T06:12:25;3.53;;;2.10;;
59960;SDS011;55902;-37.980;-63.602;2023-05-21T06:14:52;3.50;;;1.90;;
59960;SDS011;55902;-37.980;-63.602;2023-05-21T06:17:19;2.70;;;2.00;;
59960;SDS011;55902;-37.980;-63.602;2023-05-21T06:19:46;2.20;;;1.90;;
59960;SDS011;55902;-37.980;-63.602;2023-05-21T06:22:13;2.17;;;2.00;;
59960;SDS011;55902;-37.980;-63.602;2023-05-21T06:24:40;3.08;;;2.30;;
59960;SDS011;55902;-37.980;-63.602;2023-05-21T06:27:07;2.17;;;1.95;;
59960;SDS011;55902;-37.980;-63.602;2023-05-21T06:29:34;4.63;;;2.10;;
59960;SDS011;55902;-37.980;-63.602;2023-05-21T06:32:01;2.80;;;2.00;;
59960;SDS011;55902;-37.980;-63.602;2023-05-21T06:34:28;3.15;;;1.90;;
59960;SDS011;55902;-37.980;-63.602;2023-05-21T06:36:55;2.22;;;2.03;;
59960;SDS011;55902;-37.980;-63.602;2023-05-21T06:39:22;3.15;;;2.10;;
59960;SDS011;55902;-37.980;-63.602;2023-05-21T06:41:49;3.13;;;1.98;;
59960;SDS011;55902;-37.980;-63.602;2023-05-21T06:44:16;2.17;;;1.98;;
59960;SDS011;55902;-37.980;-63.602;2023-05-21T06:46:46;4.75;;;2.20;;
59960;SDS011;55902;-37.980;-63.602;2023-05-21T06:49:13;2.95;;;2.00;;
59960;SDS011;55902;-37.980;-63.602;2023-05-21T06:51:40;2.17;;;1.98;;
59960;SDS011;55902;-37.980;-63.602;2023-05-21T06:54:07;2.97;;;2.03;;
59960;SDS011;55902;-37.980;-63.602;2023-05-21T06:56:34;3.25;;;1.90;;
59960;SDS011;55902;-37.980;-63.602;2023-05-21T06:59:01;3.70;;;2.00;;
59960;SDS011;55902;-37.980;-63.602;2023-05-21T07:01:28;3.53;;;2.10;;
59960;SDS011;55902;-37.980;-63.602;2023-05-21T07:03:55;3.50;;;2.00;;
59960;SDS011;55902;-37.980;-63.602;2023-05-21T07:06:22;4.72;;;2.20;;
59960;SDS011;55902;-37.980;-63.602;2023-05-21T07:08:49;3.40;;;2.05;;
59960;SDS011;55902;-37.980;-63.602;2023-05-21T07:11:16;3.25;;;2.00;;
59960;SDS011;55902;-37.980;-63.602;2023-05-21T07:13:43;2.35;;;2.00;;
59960;SDS011;55902;-37.980;-63.602;2023-05-21T07:16:10;3.35;;;2.05;;
59960;SDS011;55902;-37.980;-63.602;2023-05-21T07:18:37;3.10;;;2.10;;
59960;SDS011;55902;-37.980;-63.602;2023-05-21T07:21:04;2.33;;;2.00;;
59960;SDS011;55902;-37.980;-63.602;2023-05-21T07:23:31;3.22;;;2.70;;
59960;SDS011;55902;-37.980;-63.602;2023-05-21T07:25:58;2.80;;;2.00;;
59960;SDS011;55902;-37.980;-63.602;2023-05-21T07:28:25;2.10;;;1.90;;
59960;SDS011;55902;-37.980;-63.602;2023-05-21T07:30:52;3.90;;;2.10;;
59960;SDS011;55902;-37.980;-63.602;2023-05-21T07:33:19;5.35;;;2.17;;
59960;SDS011;55902;-37.980;-63.602;2023-05-21T07:35:47;2.80;;;2.05;;
59960;SDS011;55902;-37.980;-63.602;2023-05-21T07:38:14;2.33;;;2.08;;
59960;SDS011;55902;-37.980;-63.602;2023-05-21T07:40:42;2.75;;;2.00;;
59960;SDS011;55902;-37.980;-63.602;2023-05-21T07:43:09;3.55;;;2.05;;
59960;SDS011;55902;-37.980;-63.602;2023-05-21T07:45:36;2.30;;;2.10;;
59960;SDS011;55902;-37.980;-63.602;2023-05-21T07:48:03;3.25;;;2.10;;
59960;SDS011;55902;-37.980;-63.602;2023-05-21T07:50:30;2.72;;;2.10;;
59960;SDS011;55902;-37.980;-63.602;2023-05-21T07:52:57;2.35;;;2.10;;
59960;SDS011;55902;-37.980;-63.602;2023-05-21T07:55:24;2.70;;;2.15;;
59960;SDS011;55902;-37.980;-63.602;2023-05-21T07:57:51;3.63;;;2.22;;
59960;SDS011;55902;-37.980;-63.602;2023-05-21T08:00:18;2.10;;;1.95;;
59960;SDS011;55902;-37.980;-63.602;2023-05-21T08:02:47;3.67;;;2.10;;
59960;SDS011;55902;-37.980;-63.602;2023-05-21T08:05:14;3.72;;;2.10;;
59960;SDS011;55902;-37.980;-63.602;2023-05-21T08:07:41;3.22;;;2.00;;
59960;SDS011;55902;-37.980;-63.602;2023-05-21T08:10:08;5.50;;;2.63;;
59960;SDS011;55902;-37.980;-63.602;2023-05-21T08:12:35;2.90;;;2.20;;
59960;SDS011;55902;-37.980;-63.602;2023-05-21T08:15:02;3.15;;;2.25;;
59960;SDS011;55902;-37.980;-63.602;2023-05-21T08:17:30;3.35;;;2.15;;
59960;SDS011;55902;-37.980;-63.602;2023-05-21T08:19:56;3.70;;;2.00;;
59960;SDS011;55902;-37.980;-63.602;2023-05-21T08:22:23;2.78;;;2.00;;
59960;SDS011;55902;-37.980;-63.602;2023-05-21T08:24:50;3.88;;;2.17;;
59960;SDS011;55902;-37.980;-63.602;2023-05-21T08:27:17;3.33;;;2.00;;
59960;SDS011;55902;-37.980;-63.602;2023-05-21T08:29:44;4.60;;;2.03;;
59960;SDS011;55902;-37.980;-63.602;2023-05-21T08:32:11;4.53;;;2.20;;
59960;SDS011;55902;-37.980;-63.602;2023-05-21T08:34:38;3.78;;;2.20;;
59960;SDS011;55902;-37.980;-63.602;2023-05-21T08:37:05;3.53;;;2.08;;
59960;SDS011;55902;-37.980;-63.602;2023-05-21T08:39:32;3.28;;;2.13;;
59960;SDS011;55902;-37.980;-63.602;2023-05-21T08:42:03;3.30;;;2.10;;
59960;SDS011;55902;-37.980;-63.602;2023-05-21T08:44:40;4.35;;;2.20;;
59960;SDS011;55902;-37.980;-63.602;2023-05-21T08:47:11;5.43;;;2.13;;
59960;SDS011;55902;-37.980;-63.602;2023-05-21T08:49:41;5.05;;;2.40;;
59960;SDS011;55902;-37.980;-63.602;2023-05-21T08:52:10;6.88;;;2.20;;
59960;SDS011;55902;-37.980;-63.602;2023-05-21T08:54:38;2.72;;;2.53;;
59960;SDS011;55902;-37.980;-63.602;2023-05-21T08:57:05;6.28;;;2.35;;
59960;SDS011;55902;-37.980;-63.602;2023-05-21T08:59:32;3.08;;;2.13;;
59960;SDS011;55902;-37.980;-63.602;2023-05-21T09:02:01;3.75;;;2.17;;
59960;SDS011;55902;-37.980;-63.602;2023-05-21T09:04:30;4.90;;;2.45;;
59960;SDS011;55902;-37.980;-63.602;2023-05-21T09:06:58;3.60;;;2.13;;
59960;SDS011;55902;-37.980;-63.602;2023-05-21T09:09:29;4.55;;;2.30;;
59960;SDS011;55902;-37.980;-63.602;2023-05-21T09:11:59;3.38;;;2.20;;
59960;SDS011;55902;-37.980;-63.602;2023-05-21T09:14:26;6.70;;;2.55;;
59960;SDS011;55902;-37.980;-63.602;2023-05-21T09:16:54;3.47;;;2.25;;
59960;SDS011;55902;-37.980;-63.602;2023-05-21T09:19:21;4.32;;;2.38;;
59960;SDS011;55902;-37.980;-63.602;2023-05-21T09:21:50;4.78;;;2.40;;
59960;SDS011;55902;-37.980;-63.602;2023-05-21T09:24:17;5.43;;;2.33;;
59960;SDS011;55902;-37.980;-63.602;2023-05-21T09:26:49;3.40;;;2.28;;
59960;SDS011;55902;-37.980;-63.602;2023-05-21T09:29:16;4.95;;;2.40;;
59960;SDS011;55902;-37.980;-63.602;2023-05-21T09:31:43;7.97;;;2.40;;
59960;SDS011;55902;-37.980;-63.602;2023-05-21T09:34:10;6.25;;;2.50;;
59960;SDS011;55902;-37.980;-63.602;2023-05-21T09:36:40;7.15;;;2.53;;
59960;SDS011;55902;-37.980;-63.602;2023-05-21T09:39:11;5.47;;;2.67;;
59960;SDS011;55902;-37.980;-63.602;2023-05-21T09:41:56;4.03;;;2.58;;
59960;SDS011;55902;-37.980;-63.602;2023-05-21T09:44:23;5.72;;;2.92;;
59960;SDS011;55902;-37.980;-63.602;2023-05-21T09:46:55;7.32;;;2.92;;
59960;SDS011;55902;-37.980;-63.602;2023-05-21T09:51:55;4.53;;;2.80;;
59960;SDS011;55902;-37.980;-63.602;2023-05-21T09:54:23;5.65;;;2.92;;
59960;SDS011;55902;-37.980;-63.602;2023-05-21T09:56:50;5.95;;;2.92;;
59960;SDS011;55902;-37.980;-63.602;2023-05-21T09:59:18;7.15;;;3.47;;
59960;SDS011;55902;-37.980;-63.602;2023-05-21T10:01:48;7.07;;;3.40;;
59960;SDS011;55902;-37.980;-63.602;2023-05-21T10:04:19;7.70;;;3.20;;
59960;SDS011;55902;-37.980;-63.602;2023-05-21T10:06:47;6.28;;;3.28;;
59960;SDS011;55902;-37.980;-63.602;2023-05-21T10:09:16;4.78;;;3.20;;
59960;SDS011;55902;-37.980;-63.602;2023-05-21T10:11:45;8.48;;;3.50;;
59960;SDS011;55902;-37.980;-63.602;2023-05-21T10:14:18;5.80;;;3.10;;
59960;SDS011;55902;-37.980;-63.602;2023-05-21T10:16:46;5.82;;;3.30;;
59960;SDS011;55902;-37.980;-63.602;2023-05-21T10:19:14;7.75;;;3.45;;
59960;SDS011;55902;-37.980;-63.602;2023-05-21T10:21:41;7.80;;;3.50;;
59960;SDS011;55902;-37.980;-63.602;2023-05-21T10:24:10;6.88;;;3.60;;
59960;SDS011;55902;-37.980;-63.602;2023-05-21T10:26:38;7.13;;;3.30;;
59960;SDS011;55902;-37.980;-63.602;2023-05-21T10:29:06;8.57;;;3.60;;
59960;SDS011;55902;-37.980;-63.602;2023-05-21T10:31:33;6.80;;;3.42;;
59960;SDS011;55902;-37.980;-63.602;2023-05-21T10:34:02;5.82;;;4.10;;
59960;SDS011;55902;-37.980;-63.602;2023-05-21T10:36:30;8.65;;;3.80;;
59960;SDS011;55902;-37.980;-63.602;2023-05-21T10:38:59;8.25;;;4.13;;
59960;SDS011;55902;-37.980;-63.602;2023-05-21T10:41:27;8.65;;;3.70;;
59960;SDS011;55902;-37.980;-63.602;2023-05-21T10:44:10;8.38;;;3.83;;
59960;SDS011;55902;-37.980;-63.602;2023-05-21T10:49:37;9.60;;;4.20;;
59960;SDS011;55902;-37.980;-63.602;2023-05-21T10:52:32;8.27;;;4.25;;
59960;SDS011;55902;-37.980;-63.602;2023-05-21T10:55:22;8.30;;;4.10;;
59960;SDS011;55902;-37.980;-63.602;2023-05-21T11:00:42;8.07;;;4.32;;
59960;SDS011;55902;-37.980;-63.602;2023-05-21T11:03:10;8.23;;;4.50;;
59960;SDS011;55902;-37.980;-63.602;2023-05-21T11:11:00;9.63;;;4.70;;
59960;SDS011;55902;-37.980;-63.602;2023-05-21T11:13:28;8.18;;;4.72;;
59960;SDS011;55902;-37.980;-63.602;2023-05-21T11:16:14;8.48;;;4.50;;
59960;SDS011;55902;-37.980;-63.602;2023-05-21T11:21:15;13.20;;;4.60;;
59960;SDS011;55902;-37.980;-63.602;2023-05-21T11:23:55;5.07;;;3.65;;
59960;SDS011;55902;-37.980;-63.602;2023-05-21T11:29:17;9.30;;;4.38;;
59960;SDS011;55902;-37.980;-63.602;2023-05-21T11:31:45;9.10;;;4.38;;
59960;SDS011;55902;-37.980;-63.602;2023-05-21T11:34:19;6.90;;;3.92;;
59960;SDS011;55902;-37.980;-63.602;2023-05-21T11:40:01;9.32;;;4.70;;
59960;SDS011;55902;-37.980;-63.602;2023-05-21T11:42:41;8.27;;;4.28;;
59960;SDS011;55902;-37.980;-63.602;2023-05-21T11:45:13;7.50;;;4.90;;
59960;SDS011;55902;-37.980;-63.602;2023-05-21T11:47:44;7.10;;;3.95;;
59960;SDS011;55902;-37.980;-63.602;2023-05-21T11:50:13;6.15;;;4.30;;
59960;SDS011;55902;-37.980;-63.602;2023-05-21T11:52:41;6.63;;;4.47;;
59960;SDS011;55902;-37.980;-63.602;2023-05-21T11:55:09;8.23;;;4.47;;
59960;SDS011;55902;-37.980;-63.602;2023-05-21T11:57:36;5.03;;;3.90;;
59960;SDS011;55902;-37.980;-63.602;2023-05-21T12:00:12;9.93;;;4.30;;
59960;SDS011;55902;-37.980;-63.602;2023-05-21T12:02:44;7.10;;;4.35;;
59960;SDS011;55902;-37.980;-63.602;2023-05-21T12:05:19;7.05;;;4.30;;
59960;SDS011;55902;-37.980;-63.602;2023-05-21T12:07:47;6.82;;;4.20;;
59960;SDS011;55902;-37.980;-63.602;2023-05-21T12:10:21;6.70;;;4.30;;
59960;SDS011;55902;-37.980;-63.602;2023-05-21T12:12:49;7.38;;;4.38;;
59960;SDS011;55902;-37.980;-63.602;2023-05-21T12:15:16;5.85;;;4.30;;
59960;SDS011;55902;-37.980;-63.602;2023-05-21T12:17:44;7.22;;;4.78;;
59960;SDS011;55902;-37.980;-63.602;2023-05-21T12:20:16;7.65;;;4.35;;
59960;SDS011;55902;-37.980;-63.602;2023-05-21T12:22:44;6.70;;;4.65;;
59960;SDS011;55902;-37.980;-63.602;2023-05-21T12:25:13;7.65;;;4.60;;
59960;SDS011;55902;-37.980;-63.602;2023-05-21T12:27:45;6.05;;;4.47;;
59960;SDS011;55902;-37.980;-63.602;2023-05-21T12:30:16;8.02;;;4.63;;
59960;SDS011;55902;-37.980;-63.602;2023-05-21T12:32:44;5.63;;;4.47;;
59960;SDS011;55902;-37.980;-63.602;2023-05-21T12:35:20;7.60;;;4.93;;
59960;SDS011;55902;-37.980;-63.602;2023-05-21T12:37:48;8.00;;;5.07;;
59960;SDS011;55902;-37.980;-63.602;2023-05-21T12:40:18;7.90;;;5.15;;
59960;SDS011;55902;-37.980;-63.602;2023-05-21T12:42:45;6.82;;;4.95;;
59960;SDS011;55902;-37.980;-63.602;2023-05-21T12:45:12;7.55;;;5.20;;
59960;SDS011;55902;-37.980;-63.602;2023-05-21T12:47:40;9.18;;;5.15;;
59960;SDS011;55902;-37.980;-63.602;2023-05-21T12:50:13;7.68;;;5.35;;
59960;SDS011;55902;-37.980;-63.602;2023-05-21T12:52:40;9.02;;;5.38;;
59960;SDS011;55902;-37.980;-63.602;2023-05-21T12:55:07;7.13;;;4.88;;
59960;SDS011;55902;-37.980;-63.602;2023-05-21T12:57:37;7.25;;;5.40;;
59960;SDS011;55902;-37.980;-63.602;2023-05-21T13:00:07;8.82;;;6.22;;
59960;SDS011;55902;-37.980;-63.602;2023-05-21T13:02:41;6.53;;;5.60;;
59960;SDS011;55902;-37.980;-63.602;2023-05-21T13:07:43;6.78;;;5.28;;
59960;SDS011;55902;-37.980;-63.602;2023-05-21T13:10:11;9.27;;;5.82;;
59960;SDS011;55902;-37.980;-63.602;2023-05-21T13:12:38;8.25;;;6.18;;
59960;SDS011;55902;-37.980;-63.602;2023-05-21T13:15:05;10.65;;;6.20;;
59960;SDS011;55902;-37.980;-63.602;2023-05-21T13:17:33;7.63;;;5.75;;
59960;SDS011;55902;-37.980;-63.602;2023-05-21T13:22:43;8.73;;;5.43;;
59960;SDS011;55902;-37.980;-63.602;2023-05-21T13:25:17;9.48;;;5.35;;
59960;SDS011;55902;-37.980;-63.602;2023-05-21T13:27:46;7.65;;;5.55;;
59960;SDS011;55902;-37.980;-63.602;2023-05-21T13:30:14;8.30;;;6.00;;
59960;SDS011;55902;-37.980;-63.602;2023-05-21T13:32:41;7.95;;;5.60;;
59960;SDS011;55902;-37.980;-63.602;2023-05-21T13:35:08;8.90;;;5.90;;
59960;SDS011;55902;-37.980;-63.602;2023-05-21T13:37:37;7.05;;;5.28;;
59960;SDS011;55902;-37.980;-63.602;2023-05-21T13:40:05;9.68;;;5.68;;
59960;SDS011;55902;-37.980;-63.602;2023-05-21T13:42:36;11.75;;;6.40;;
59960;SDS011;55902;-37.980;-63.602;2023-05-21T13:45:04;9.13;;;5.65;;
59960;SDS011;55902;-37.980;-63.602;2023-05-21T13:47:32;7.80;;;6.00;;
59960;SDS011;55902;-37.980;-63.602;2023-05-21T13:49:59;9.32;;;6.18;;
59960;SDS011;55902;-37.980;-63.602;2023-05-21T13:52:26;8.80;;;5.93;;
59960;SDS011;55902;-37.980;-63.602;2023-05-21T13:54:53;11.77;;;6.28;;
59960;SDS011;55902;-37.980;-63.602;2023-05-21T13:57:20;8.55;;;5.85;;
59960;SDS011;55902;-37.980;-63.602;2023-05-21T13:59:47;8.27;;;5.47;;
59960;SDS011;55902;-37.980;-63.602;2023-05-21T14:02:15;7.95;;;5.45;;
59960;SDS011;55902;-37.980;-63.602;2023-05-21T14:04:42;9.52;;;6.22;;
59960;SDS011;55902;-37.980;-63.602;2023-05-21T14:07:09;10.07;;;6.43;;
59960;SDS011;55902;-37.980;-63.602;2023-05-21T14:09:39;8.90;;;5.78;;
59960;SDS011;55902;-37.980;-63.602;2023-05-21T14:12:06;9.15;;;5.97;;
59960;SDS011;55902;-37.980;-63.602;2023-05-21T14:14:33;11.43;;;7.03;;
59960;SDS011;55902;-37.980;-63.602;2023-05-21T14:17:00;10.02;;;6.40;;
59960;SDS011;55902;-37.980;-63.602;2023-05-21T14:19:28;8.95;;;5.95;;
59960;SDS011;55902;-37.980;-63.602;2023-05-21T14:21:54;9.52;;;6.05;;
59960;SDS011;55902;-37.980;-63.602;2023-05-21T14:24:22;8.30;;;5.40;;
59960;SDS011;55902;-37.980;-63.602;2023-05-21T14:26:49;10.10;;;6.38;;
59960;SDS011;55902;-37.980;-63.602;2023-05-21T14:29:16;12.52;;;6.93;;
59960;SDS011;55902;-37.980;-63.602;2023-05-21T14:31:43;9.60;;;6.20;;
59960;SDS011;55902;-37.980;-63.602;2023-05-21T14:34:10;10.55;;;7.20;;
59960;SDS011;55902;-37.980;-63.602;2023-05-21T14:36:37;8.98;;;5.65;;
59960;SDS011;55902;-37.980;-63.602;2023-05-21T14:39:04;10.88;;;6.30;;
59960;SDS011;55902;-37.980;-63.602;2023-05-21T14:41:31;14.05;;;7.60;;
59960;SDS011;55902;-37.980;-63.602;2023-05-21T14:43:58;11.80;;;6.22;;